createdAt,value
2023-03-25T00:00:22.329Z,62.70
2023-03-25T00:01:55.855Z,62.80
2023-03-25T00:03:33.616Z,62.90
2023-03-25T00:05:08.111Z,62.90
2023-03-25T00:06:41.629Z,63.10
2023-03-25T00:08:13.837Z,63.00
2023-03-25T00:09:47.784Z,63.00
2023-03-25T00:11:21.103Z,62.90
2023-03-25T00:12:55.589Z,62.80
2023-03-25T00:14:28.769Z,62.60
2023-03-25T00:16:07.024Z,62.70
2023-03-25T00:17:40.715Z,63.00
2023-03-25T00:19:14.128Z,63.00
2023-03-25T00:20:49.475Z,63.10
2023-03-25T00:22:24.338Z,63.20
2023-03-25T00:23:57.433Z,63.10
2023-03-25T00:25:30.877Z,62.80
2023-03-25T00:27:04.720Z,63.00
2023-03-25T00:28:39.968Z,63.10
2023-03-25T00:30:14.620Z,63.10
2023-03-25T00:31:48.298Z,63.40
2023-03-25T00:33:22.528Z,63.40
2023-03-25T00:34:55.795Z,63.50
2023-03-25T00:36:29.101Z,63.20
2023-03-25T00:38:01.582Z,63.20
2023-03-25T00:39:34.824Z,63.00
2023-03-25T00:41:14.829Z,63.00
2023-03-25T00:42:50.608Z,63.10
2023-03-25T00:44:25.397Z,62.90
2023-03-25T00:45:58.510Z,63.00
2023-03-25T00:47:32.128Z,63.20
2023-03-25T00:49:05.797Z,63.00
2023-03-25T00:50:39.027Z,62.90
2023-03-25T00:52:12.852Z,63.10
2023-03-25T00:53:46.467Z,62.90
2023-03-25T00:55:20.055Z,63.00
2023-03-25T00:56:53.677Z,62.90
2023-03-25T00:58:26.917Z,63.00
2023-03-25T01:00:01.487Z,63.10
2023-03-25T01:01:39.463Z,63.10
2023-03-25T01:03:12.896Z,62.90
2023-03-25T01:04:46.860Z,63.00
2023-03-25T01:06:21.534Z,62.90
2023-03-25T01:07:55.431Z,62.80
2023-03-25T01:09:28.626Z,62.70
2023-03-25T01:11:01.195Z,62.50
2023-03-25T01:12:34.725Z,62.50
2023-03-25T01:14:13.482Z,62.60
2023-03-25T01:15:48.522Z,62.50
2023-03-25T01:17:22.200Z,62.30
2023-03-25T01:18:56.036Z,62.20
2023-03-25T01:20:30.877Z,62.10
2023-03-25T01:22:04.545Z,62.10
2023-03-25T01:23:37.920Z,62.10
2023-03-25T01:25:11.279Z,62.00
2023-03-25T01:26:46.634Z,62.10
2023-03-25T01:28:20.564Z,62.00
2023-03-25T01:29:54.790Z,62.10
2023-03-25T01:31:30.539Z,62.20
2023-03-25T01:33:03.875Z,62.10
2023-03-25T01:34:38.504Z,61.80
2023-03-25T01:36:13.402Z,61.80
2023-03-25T01:37:46.856Z,61.80
2023-03-25T01:39:20.513Z,61.90
2023-03-25T01:40:55.470Z,61.60
2023-03-25T01:42:29.365Z,61.40
2023-03-25T01:44:06.292Z,61.50
2023-03-25T01:45:40.171Z,61.30
2023-03-25T01:47:15.750Z,61.10
2023-03-25T01:48:49.922Z,61.00
2023-03-25T01:50:31.413Z,61.10
2023-03-25T01:52:10.715Z,60.80
2023-03-25T01:53:44.590Z,61.10
2023-03-25T01:55:18.128Z,61.10
2023-03-25T01:56:52.876Z,60.90
2023-03-25T01:58:29.416Z,61.20
2023-03-25T02:00:02.207Z,61.10
2023-03-25T02:01:46.999Z,60.80
2023-03-25T02:03:23.607Z,60.80
2023-03-25T02:05:01.638Z,60.80
2023-03-25T02:06:41.501Z,60.80
2023-03-25T02:08:16.538Z,60.70
2023-03-25T02:09:49.928Z,60.70
2023-03-25T02:11:25.868Z,60.70
2023-03-25T02:12:59.509Z,60.80
2023-03-25T02:14:37.068Z,60.40
2023-03-25T02:16:29.355Z,60.30
2023-03-25T02:18:21.791Z,60.00
2023-03-25T02:20:37.606Z,60.00
2023-03-25T02:23:09.838Z,60.00
2023-03-25T02:25:29.537Z,60.00
2023-03-25T02:27:27.022Z,59.70
2023-03-25T02:29:11.374Z,59.80
2023-03-25T02:31:32.352Z,59.90
2023-03-25T02:33:47.851Z,60.10
2023-03-25T02:35:49.775Z,59.90
2023-03-25T02:38:15.557Z,59.80
2023-03-25T02:39:59.719Z,59.90
2023-03-25T02:41:44.613Z,60.00
2023-03-25T02:43:24.503Z,60.10
2023-03-25T02:45:03.199Z,59.90
2023-03-25T02:46:36.260Z,59.80
2023-03-25T02:48:17.046Z,59.70
2023-03-25T02:49:58.264Z,59.70
2023-03-25T02:51:38.483Z,59.60
2023-03-25T02:53:19.270Z,59.70
2023-03-25T02:54:58.217Z,59.70
2023-03-25T02:56:33.383Z,59.70
2023-03-25T02:58:11.925Z,59.70
2023-03-25T02:59:48.754Z,59.60
2023-03-25T03:01:22.824Z,59.70
2023-03-25T03:03:00.213Z,59.70
2023-03-25T03:04:46.068Z,59.80
2023-03-25T03:06:20.794Z,59.80
2023-03-25T03:08:14.838Z,59.60
2023-03-25T03:09:58.296Z,59.50
2023-03-25T03:11:40.695Z,59.30
2023-03-25T03:13:31.327Z,59.30
2023-03-25T03:15:24.282Z,59.20
2023-03-25T03:17:09.090Z,59.00
2023-03-25T03:18:57.244Z,59.00
2023-03-25T03:20:41.776Z,59.10
2023-03-25T03:22:35.511Z,59.10
2023-03-25T03:24:16.698Z,59.10
2023-03-25T03:25:56.195Z,59.10
2023-03-25T03:27:34.317Z,59.10
2023-03-25T03:29:14.855Z,59.10
2023-03-25T03:30:55.391Z,59.10
2023-03-25T03:32:39.191Z,59.10
2023-03-25T03:34:19.901Z,59.00
2023-03-25T03:35:57.689Z,59.10
2023-03-25T03:37:38.593Z,59.20
2023-03-25T03:39:20.731Z,59.20
2023-03-25T03:40:59.864Z,59.10
2023-03-25T03:42:38.949Z,59.30
2023-03-25T03:44:16.010Z,59.30
2023-03-25T03:45:54.766Z,59.40
2023-03-25T03:47:33.194Z,59.50
2023-03-25T03:49:10.385Z,59.60
2023-03-25T03:50:51.574Z,59.60
2023-03-25T03:52:31.321Z,59.50
2023-03-25T03:54:12.171Z,59.60
2023-03-25T03:55:53.733Z,59.60
2023-03-25T03:57:37.561Z,59.70
2023-03-25T03:59:18.651Z,59.80
2023-03-25T04:01:00.726Z,60.20
2023-03-25T04:02:41.705Z,60.50
2023-03-25T04:04:21.185Z,60.70
2023-03-25T04:06:01.848Z,60.60
2023-03-25T04:07:38.869Z,60.50
2023-03-25T04:09:27.729Z,61.00
2023-03-25T04:11:08.979Z,60.60
2023-03-25T04:12:48.680Z,60.50
2023-03-25T04:14:22.264Z,60.50
2023-03-25T04:15:56.850Z,60.60
2023-03-25T04:17:32.866Z,60.50
2023-03-25T04:19:06.635Z,60.60
2023-03-25T04:20:44.935Z,60.50
2023-03-25T04:22:19.601Z,60.50
2023-03-25T04:23:52.902Z,60.50
2023-03-25T04:25:26.318Z,60.50
2023-03-25T04:27:04.461Z,60.60
2023-03-25T04:28:41.785Z,60.60
2023-03-25T04:30:14.956Z,60.70
2023-03-25T04:31:50.147Z,60.80
2023-03-25T04:33:23.615Z,60.90
2023-03-25T04:34:57.637Z,60.90
2023-03-25T04:36:33.660Z,60.60
2023-03-25T04:38:07.273Z,60.50
2023-03-25T04:39:40.725Z,60.50
2023-03-25T04:41:14.915Z,60.60
2023-03-25T04:42:48.860Z,60.40
2023-03-25T04:44:25.736Z,60.40
2023-03-25T04:46:00.450Z,60.40
2023-03-25T04:47:34.407Z,60.60
2023-03-25T04:49:13.917Z,60.70
2023-03-25T04:50:47.245Z,60.90
2023-03-25T04:52:21.083Z,60.90
2023-03-25T04:53:54.209Z,61.00
2023-03-25T04:55:28.177Z,61.10
2023-03-25T04:57:01.609Z,61.30
2023-03-25T04:58:36.792Z,61.40
2023-03-25T05:00:13.972Z,61.50
2023-03-25T05:01:47.301Z,61.70
2023-03-25T05:03:23.963Z,61.50
2023-03-25T05:05:02.041Z,61.60
2023-03-25T05:06:38.300Z,61.60
2023-03-25T05:08:11.586Z,61.70
2023-03-25T05:09:44.738Z,61.70
2023-03-25T05:11:17.906Z,61.90
2023-03-25T05:12:51.602Z,61.60
2023-03-25T05:14:24.993Z,61.60
2023-03-25T05:15:58.561Z,61.50
2023-03-25T05:17:32.172Z,61.50
2023-03-25T05:19:06.522Z,61.50
2023-03-25T05:20:41.080Z,61.60
2023-03-25T05:22:14.413Z,61.50
2023-03-25T05:23:48.056Z,61.40
2023-03-25T05:25:22.273Z,61.30
2023-03-25T05:26:55.526Z,61.40
2023-03-25T05:28:30.187Z,61.30
2023-03-25T05:30:04.218Z,61.30
2023-03-25T05:31:38.835Z,61.30
2023-03-25T05:33:15.206Z,61.30
2023-03-25T05:34:48.556Z,61.20
2023-03-25T05:36:24.916Z,61.20
2023-03-25T05:37:58.434Z,61.30
2023-03-25T05:39:31.615Z,61.30
2023-03-25T05:41:04.818Z,61.20
2023-03-25T05:42:37.997Z,61.20
2023-03-25T05:44:15.304Z,61.10
2023-03-25T05:45:48.982Z,61.20
2023-03-25T05:47:26.393Z,61.40
2023-03-25T05:49:00.712Z,61.30
2023-03-25T05:50:33.918Z,61.30
2023-03-25T05:52:09.014Z,61.50
2023-03-25T05:53:43.618Z,61.70
2023-03-25T05:55:20.705Z,61.80
2023-03-25T05:56:54.267Z,61.90
2023-03-25T05:58:27.376Z,61.80
2023-03-25T06:00:00.533Z,61.80
2023-03-25T06:01:34.493Z,61.70
2023-03-25T06:03:10.999Z,62.00
2023-03-25T06:04:46.601Z,61.80
2023-03-25T06:06:19.785Z,62.10
2023-03-25T06:07:56.571Z,62.20
2023-03-25T06:09:30.967Z,62.30
2023-03-25T06:11:04.522Z,62.40
2023-03-25T06:12:38.772Z,62.50
2023-03-25T06:14:11.986Z,62.60
2023-03-25T06:15:45.179Z,62.50
2023-03-25T06:17:19.015Z,62.50
2023-03-25T06:18:56.411Z,62.60
2023-03-25T06:20:29.771Z,62.60
2023-03-25T06:22:03.978Z,62.60
2023-03-25T06:23:39.160Z,62.70
2023-03-25T06:25:17.355Z,62.70
2023-03-25T06:26:51.128Z,62.60
2023-03-25T06:28:24.258Z,62.70
2023-03-25T06:29:58.237Z,62.70
2023-03-25T06:31:33.913Z,62.90
2023-03-25T06:33:07.621Z,63.00
2023-03-25T06:34:43.614Z,63.10
2023-03-25T06:36:19.091Z,63.10
2023-03-25T06:37:52.307Z,63.20
2023-03-25T06:39:49.578Z,63.10
2023-03-25T06:41:26.505Z,63.20
2023-03-25T06:43:10.332Z,63.10
2023-03-25T06:44:42.630Z,63.10
2023-03-25T06:46:48.637Z,63.20
2023-03-25T06:48:23.986Z,63.30
2023-03-25T06:49:58.578Z,63.20
2023-03-25T06:51:31.775Z,63.30
2023-03-25T06:53:05.062Z,63.20
2023-03-25T06:54:38.426Z,63.20
2023-03-25T06:56:11.673Z,63.20
2023-03-25T06:57:45.040Z,63.20
2023-03-25T06:59:18.255Z,63.20
2023-03-25T07:00:53.842Z,63.20
2023-03-25T07:02:27.045Z,63.20
2023-03-25T07:04:00.210Z,63.30
2023-03-25T07:05:34.854Z,63.40
2023-03-25T07:07:09.016Z,63.50
2023-03-25T07:08:42.188Z,63.50
2023-03-25T07:10:15.692Z,63.40
2023-03-25T07:11:49.052Z,63.40
2023-03-25T07:13:22.231Z,63.60
2023-03-25T07:14:57.213Z,63.60
2023-03-25T07:16:30.338Z,63.70
2023-03-25T07:18:03.602Z,63.90
2023-03-25T07:19:36.830Z,63.40
2023-03-25T07:21:10.422Z,63.30
2023-03-25T07:22:43.562Z,64.00
2023-03-25T07:24:16.880Z,63.10
2023-03-25T07:25:50.392Z,63.20
2023-03-25T07:27:23.670Z,63.40
2023-03-25T07:29:06.379Z,63.30
2023-03-25T07:30:39.734Z,63.30
2023-03-25T07:32:13.120Z,63.30
2023-03-25T07:33:46.296Z,63.30
2023-03-25T07:35:19.602Z,63.40
2023-03-25T07:36:54.160Z,63.50
2023-03-25T07:38:27.273Z,63.60
2023-03-25T07:40:00.594Z,63.50
2023-03-25T07:41:33.728Z,63.40
2023-03-25T07:43:15.823Z,63.50
2023-03-25T07:44:54.900Z,63.30
2023-03-25T07:46:29.187Z,63.20
2023-03-25T07:48:02.763Z,63.20
2023-03-25T07:49:36.012Z,63.20
2023-03-25T07:51:09.999Z,63.30
2023-03-25T07:52:44.687Z,63.60
2023-03-25T07:54:18.309Z,63.80
2023-03-25T07:55:52.146Z,63.90
2023-03-25T07:57:25.640Z,64.00
2023-03-25T07:58:59.144Z,64.00
2023-03-25T08:00:32.680Z,64.20
2023-03-25T08:02:06.197Z,64.30
2023-03-25T08:03:39.940Z,64.30
2023-03-25T08:05:21.092Z,64.40
2023-03-25T08:06:54.223Z,64.30
2023-03-25T08:08:30.004Z,64.00
2023-03-25T08:10:03.159Z,64.10
2023-03-25T08:11:36.417Z,64.20
2023-03-25T08:13:09.556Z,64.00
2023-03-25T08:14:42.870Z,63.90
2023-03-25T08:16:15.639Z,64.80
2023-03-25T08:17:49.088Z,64.10
2023-03-25T08:19:22.250Z,63.70
2023-03-25T08:20:55.616Z,63.60
2023-03-25T08:22:28.866Z,63.50
2023-03-25T08:24:04.613Z,63.30
2023-03-25T08:25:39.088Z,63.00
2023-03-25T08:27:14.865Z,62.80
2023-03-25T08:28:49.562Z,62.50
2023-03-25T08:30:23.400Z,62.30
2023-03-25T08:31:57.115Z,62.20
2023-03-25T08:33:34.366Z,61.90
2023-03-25T08:35:09.095Z,61.80
2023-03-25T08:36:42.318Z,61.90
2023-03-25T08:38:16.269Z,61.70
2023-03-25T08:39:51.036Z,61.50
2023-03-25T08:41:26.094Z,61.50
2023-03-25T08:42:59.256Z,61.70
2023-03-25T08:44:32.434Z,61.70
2023-03-25T08:46:06.109Z,61.80
2023-03-25T08:47:39.375Z,61.80
2023-03-25T08:49:12.709Z,61.40
2023-03-25T08:50:46.207Z,61.10
2023-03-25T08:52:19.364Z,60.80
2023-03-25T08:53:52.569Z,60.70
2023-03-25T08:55:27.750Z,60.80
2023-03-25T08:57:00.952Z,60.90
2023-03-25T08:58:34.277Z,61.20
2023-03-25T09:00:12.382Z,61.40
2023-03-25T09:01:45.880Z,61.00
2023-03-25T09:03:19.005Z,60.70
2023-03-25T09:04:52.440Z,60.50
2023-03-25T09:06:26.089Z,60.50
2023-03-25T09:07:59.483Z,60.50
2023-03-25T09:09:32.947Z,60.50
2023-03-25T09:11:08.030Z,60.60
2023-03-25T09:12:41.689Z,60.60
2023-03-25T09:14:14.938Z,60.60
2023-03-25T09:15:48.489Z,60.60
2023-03-25T09:17:21.997Z,60.70
2023-03-25T09:18:55.364Z,60.60
2023-03-25T09:20:29.209Z,60.60
2023-03-25T09:22:02.400Z,60.60
2023-03-25T09:23:35.949Z,60.40
2023-03-25T09:25:10.633Z,60.50
2023-03-25T09:26:45.280Z,60.30
2023-03-25T09:28:18.707Z,60.10
2023-03-25T09:29:51.844Z,60.30
2023-03-25T09:31:26.041Z,60.30
2023-03-25T09:32:59.535Z,60.30
2023-03-25T09:34:32.677Z,60.30
2023-03-25T09:36:07.175Z,60.10
2023-03-25T09:37:40.753Z,60.20
2023-03-25T09:39:13.922Z,59.90
2023-03-25T09:40:47.561Z,59.90
2023-03-25T09:42:38.667Z,60.00
2023-03-25T09:44:22.981Z,59.90
2023-03-25T09:45:57.766Z,60.00
2023-03-25T09:47:34.191Z,60.30
2023-03-25T09:49:17.837Z,60.10
2023-03-25T09:50:51.030Z,60.10
2023-03-25T09:52:29.293Z,60.00
2023-03-25T09:54:14.595Z,60.10
2023-03-25T09:55:49.061Z,60.00
2023-03-25T09:57:29.057Z,60.00
2023-03-25T09:59:11.403Z,59.90
2023-03-25T10:00:47.654Z,59.90
2023-03-25T10:02:35.198Z,59.90
2023-03-25T10:04:49.341Z,59.50
2023-03-25T10:06:26.252Z,59.30
2023-03-25T10:08:15.188Z,59.50
2023-03-25T10:10:00.431Z,59.60
2023-03-25T10:11:46.052Z,60.30
2023-03-25T10:13:34.282Z,59.20
2023-03-25T10:15:27.863Z,59.20
2023-03-25T10:17:20.756Z,59.30
2023-03-25T10:19:15.092Z,59.20
2023-03-25T10:21:02.490Z,58.80
2023-03-25T10:22:48.340Z,59.00
2023-03-25T10:24:28.026Z,58.90
2023-03-25T10:26:07.860Z,59.10
2023-03-25T10:27:46.609Z,59.20
2023-03-25T10:29:23.346Z,59.50
2023-03-25T10:31:00.137Z,59.60
2023-03-25T10:32:41.628Z,59.40
2023-03-25T10:34:20.398Z,59.30
2023-03-25T10:35:55.122Z,59.40
2023-03-25T10:37:32.641Z,59.40
2023-03-25T10:39:14.097Z,59.10
2023-03-25T10:40:51.625Z,59.00
2023-03-25T10:42:33.490Z,59.00
2023-03-25T10:44:10.239Z,58.90
2023-03-25T10:45:45.647Z,58.90
2023-03-25T10:47:25.726Z,58.80
2023-03-25T10:48:59.495Z,58.40
2023-03-25T10:50:32.852Z,58.30
2023-03-25T10:52:06.453Z,58.50
2023-03-25T10:53:42.433Z,58.50
2023-03-25T10:55:26.623Z,58.60
2023-03-25T10:57:03.715Z,58.90
2023-03-25T10:58:40.493Z,58.90
2023-03-25T11:00:17.621Z,59.20
2023-03-25T11:01:54.297Z,59.40
2023-03-25T11:03:34.318Z,59.50
2023-03-25T11:05:10.496Z,59.80
2023-03-25T11:06:47.289Z,59.80
2023-03-25T11:08:25.148Z,59.80
2023-03-25T11:10:16.000Z,59.90
2023-03-25T11:11:49.269Z,59.70
2023-03-25T11:13:26.994Z,59.70
2023-03-25T11:15:02.290Z,59.60
2023-03-25T11:16:43.611Z,59.40
2023-03-25T11:18:23.150Z,59.50
2023-03-25T11:20:06.568Z,59.50
2023-03-25T11:21:40.154Z,59.50
2023-03-25T11:23:23.528Z,59.40
2023-03-25T11:25:03.482Z,59.50
2023-03-25T11:26:41.581Z,59.70
2023-03-25T11:28:21.427Z,59.70
2023-03-25T11:29:58.312Z,59.40
2023-03-25T11:31:36.509Z,59.20
2023-03-25T11:33:17.177Z,59.00
2023-03-25T11:34:54.554Z,59.00
2023-03-25T11:36:32.778Z,59.20
2023-03-25T11:38:17.611Z,58.80
2023-03-25T11:39:55.190Z,58.70
2023-03-25T11:41:34.797Z,58.80
2023-03-25T11:43:12.053Z,59.10
2023-03-25T11:44:53.403Z,59.40
2023-03-25T11:46:27.988Z,59.70
2023-03-25T11:48:11.896Z,59.60
2023-03-25T11:49:50.443Z,59.50
2023-03-25T11:51:29.109Z,59.40
2023-03-25T11:53:08.159Z,59.30
2023-03-25T11:54:43.333Z,58.90
2023-03-25T11:56:23.184Z,59.00
2023-03-25T11:58:00.117Z,58.80
2023-03-25T11:59:40.014Z,59.50
2023-03-25T12:01:27.673Z,58.60
2023-03-25T12:03:03.241Z,58.60
2023-03-25T12:04:37.393Z,58.60
2023-03-25T12:06:22.069Z,58.40
2023-03-25T12:08:11.418Z,58.30
2023-03-25T12:09:57.157Z,57.90
2023-03-25T12:11:36.526Z,57.60
2023-03-25T12:13:22.612Z,57.60
2023-03-25T12:15:16.440Z,57.50
2023-03-25T12:17:01.262Z,57.20
2023-03-25T12:18:54.150Z,57.00
2023-03-25T12:20:34.328Z,57.00
2023-03-25T12:22:26.514Z,57.20
2023-03-25T12:24:16.187Z,57.60
2023-03-25T12:26:02.198Z,57.70
2023-03-25T12:27:53.537Z,58.20
2023-03-25T12:29:43.819Z,58.10
2023-03-25T12:31:36.584Z,57.70
2023-03-25T12:33:31.256Z,57.50
2023-03-25T12:35:29.569Z,57.10
2023-03-25T12:37:17.386Z,56.70
2023-03-25T12:39:06.006Z,56.60
2023-03-25T12:41:12.320Z,57.10
2023-03-25T12:43:02.048Z,57.20
2023-03-25T12:45:01.512Z,57.00
2023-03-25T12:47:05.514Z,57.00
2023-03-25T12:49:05.337Z,57.00
2023-03-25T12:50:52.054Z,57.00
2023-03-25T12:52:38.091Z,57.20
2023-03-25T12:54:37.882Z,57.20
2023-03-25T12:56:34.374Z,57.80
2023-03-25T12:58:43.826Z,58.30
2023-03-25T13:00:26.471Z,58.50
2023-03-25T13:02:21.077Z,58.60
2023-03-25T13:04:10.738Z,58.60
2023-03-25T13:05:53.534Z,59.10
2023-03-25T13:07:34.706Z,59.30
2023-03-25T13:09:20.733Z,59.40
2023-03-25T13:11:04.587Z,59.60
2023-03-25T13:12:44.787Z,59.40
2023-03-25T13:14:25.335Z,59.40
2023-03-25T13:16:07.957Z,59.20
2023-03-25T13:17:48.965Z,58.90
2023-03-25T13:19:27.890Z,59.20
2023-03-25T13:21:13.741Z,59.50
2023-03-25T13:22:53.193Z,59.50
2023-03-25T13:24:43.014Z,59.00
2023-03-25T13:26:23.784Z,58.50
2023-03-25T13:28:01.587Z,58.40
2023-03-25T13:29:41.002Z,58.10
2023-03-25T13:31:19.187Z,57.90
2023-03-25T13:32:58.361Z,57.60
2023-03-25T13:34:41.122Z,57.40
2023-03-25T13:36:27.371Z,57.40
2023-03-25T13:38:05.688Z,57.00
2023-03-25T13:39:55.833Z,56.80
2023-03-25T13:41:38.060Z,56.60
2023-03-25T13:43:24.453Z,56.50
2023-03-25T13:44:59.718Z,56.60
2023-03-25T13:46:38.930Z,56.20
2023-03-25T13:48:19.671Z,56.20
2023-03-25T13:49:59.229Z,55.90
2023-03-25T13:51:32.726Z,55.50
2023-03-25T13:53:15.016Z,55.70
2023-03-25T13:54:57.737Z,56.00
2023-03-25T13:57:02.478Z,56.10
2023-03-25T13:59:13.457Z,56.40
2023-03-25T14:01:28.913Z,56.20
2023-03-25T14:03:59.993Z,55.90
2023-03-25T14:06:07.419Z,56.20
2023-03-25T14:08:09.611Z,56.40
2023-03-25T14:10:30.808Z,56.70
2023-03-25T14:12:13.446Z,56.60
2023-03-25T14:13:53.927Z,56.50
2023-03-25T14:15:33.868Z,56.50
2023-03-25T14:17:08.882Z,56.60
2023-03-25T14:18:45.428Z,56.80
2023-03-25T14:20:25.305Z,57.20
2023-03-25T14:21:59.849Z,57.40
2023-03-25T14:23:33.578Z,57.70
2023-03-25T14:25:22.608Z,57.90
2023-03-25T14:27:02.065Z,58.60
2023-03-25T14:28:39.568Z,58.80
2023-03-25T14:30:22.617Z,59.00
2023-03-25T14:32:06.689Z,59.30
2023-03-25T14:34:34.169Z,59.70
2023-03-25T14:36:09.868Z,60.10
2023-03-25T14:37:43.751Z,59.90
2023-03-25T14:39:40.099Z,59.70
2023-03-25T14:41:16.046Z,59.80
2023-03-25T14:43:00.623Z,59.90
2023-03-25T14:44:40.993Z,60.10
2023-03-25T14:46:21.720Z,59.80
2023-03-25T14:47:55.546Z,59.20
2023-03-25T14:49:54.542Z,59.50
2023-03-25T14:51:50.584Z,59.70
2023-03-25T14:53:23.982Z,59.60
2023-03-25T14:54:58.452Z,59.50
2023-03-25T14:56:38.840Z,59.60
2023-03-25T14:58:21.938Z,59.60
2023-03-25T15:00:01.806Z,59.50
2023-03-25T15:01:40.301Z,59.50
2023-03-25T15:03:18.276Z,59.60
2023-03-25T15:04:59.150Z,59.60
2023-03-25T15:06:36.756Z,59.60
2023-03-25T15:08:16.678Z,59.60
2023-03-25T15:09:56.060Z,59.70
2023-03-25T15:11:37.821Z,59.80
2023-03-25T15:13:17.349Z,60.00
2023-03-25T15:14:57.185Z,60.30
2023-03-25T15:16:36.284Z,60.30
2023-03-25T15:18:11.581Z,60.40
2023-03-25T15:20:31.560Z,60.40
2023-03-25T15:22:21.216Z,60.60
2023-03-25T15:24:06.297Z,61.30
2023-03-25T15:25:41.301Z,60.90
2023-03-25T15:27:33.290Z,61.00
2023-03-25T15:29:31.477Z,61.50
2023-03-25T15:31:28.186Z,61.50
2023-03-25T15:33:24.667Z,61.50
2023-03-25T15:35:52.922Z,61.40
2023-03-25T15:38:04.122Z,61.40
2023-03-25T15:39:56.579Z,61.00
2023-03-25T15:42:07.216Z,61.00
2023-03-25T15:44:19.891Z,60.90
2023-03-25T15:46:29.358Z,60.70
2023-03-25T15:48:22.488Z,60.80
2023-03-25T15:50:35.513Z,60.90
2023-03-25T15:52:31.697Z,60.40
2023-03-25T15:54:32.756Z,60.50
2023-03-25T15:56:11.397Z,60.90
2023-03-25T15:57:51.129Z,61.00
2023-03-25T15:59:38.690Z,61.30
2023-03-25T16:01:26.076Z,61.30
2023-03-25T16:03:09.282Z,61.80
2023-03-25T16:04:47.703Z,61.90
2023-03-25T16:06:23.204Z,62.00
2023-03-25T16:08:01.142Z,61.80
2023-03-25T16:09:44.552Z,61.50
2023-03-25T16:11:26.997Z,61.30
2023-03-25T16:13:05.488Z,61.20
2023-03-25T16:14:44.125Z,61.20
2023-03-25T16:16:19.669Z,61.20
2023-03-25T16:17:53.626Z,61.20
2023-03-25T16:19:35.016Z,61.20
2023-03-25T16:21:09.292Z,61.50
2023-03-25T16:22:45.585Z,61.50
2023-03-25T16:24:21.425Z,61.60
2023-03-25T16:25:56.234Z,61.40
2023-03-25T16:27:35.605Z,61.50
2023-03-25T16:29:18.446Z,61.80
2023-03-25T16:30:54.616Z,62.10
2023-03-25T16:32:34.720Z,62.20
2023-03-25T16:34:15.026Z,62.30
2023-03-25T16:35:54.081Z,62.20
2023-03-25T16:37:27.854Z,62.30
2023-03-25T16:39:01.926Z,62.50
2023-03-25T16:40:41.642Z,62.70
2023-03-25T16:42:26.697Z,62.80
2023-03-25T16:44:00.156Z,62.70
2023-03-25T16:45:34.197Z,62.60
2023-03-25T16:47:13.057Z,62.60
2023-03-25T16:48:53.240Z,62.60
2023-03-25T16:50:26.755Z,62.60
2023-03-25T16:52:03.259Z,62.60
2023-03-25T16:53:40.930Z,62.70
2023-03-25T16:55:31.446Z,62.90
2023-03-25T16:57:08.617Z,62.80
2023-03-25T16:59:00.180Z,62.70
2023-03-25T17:00:43.159Z,62.90
2023-03-25T17:02:30.455Z,62.80
2023-03-25T17:04:17.018Z,62.80
2023-03-25T17:06:04.545Z,62.80
2023-03-25T17:07:42.522Z,62.60
2023-03-25T17:09:19.654Z,62.50
2023-03-25T17:10:58.060Z,62.30
2023-03-25T17:12:31.248Z,62.30
2023-03-25T17:14:14.920Z,63.00
2023-03-25T17:15:49.310Z,61.90
2023-03-25T17:17:37.610Z,61.70
2023-03-25T17:19:15.381Z,62.50
2023-03-25T17:20:51.578Z,61.30
2023-03-25T17:22:32.756Z,61.10
2023-03-25T17:24:23.408Z,61.10
2023-03-25T17:26:01.095Z,61.60
2023-03-25T17:27:37.174Z,61.50
2023-03-25T17:29:14.139Z,61.20
2023-03-25T17:30:47.884Z,61.10
2023-03-25T17:32:22.404Z,61.10
2023-03-25T17:34:05.559Z,61.10
2023-03-25T17:35:40.718Z,61.10
2023-03-25T17:37:16.276Z,61.10
2023-03-25T17:38:53.386Z,61.20
2023-03-25T17:40:29.416Z,61.10
2023-03-25T17:42:05.848Z,60.80
2023-03-25T17:43:44.736Z,60.60
2023-03-25T17:45:19.129Z,60.50
2023-03-25T17:46:52.374Z,60.30
2023-03-25T17:48:26.276Z,60.10
2023-03-25T17:50:14.496Z,60.00
2023-03-25T17:51:48.002Z,60.00
2023-03-25T17:53:22.252Z,60.00
2023-03-25T17:54:55.532Z,60.20
2023-03-25T17:56:30.412Z,60.10
2023-03-25T17:58:04.259Z,60.00
2023-03-25T17:59:37.399Z,60.20
2023-03-25T18:01:12.753Z,60.20
2023-03-25T18:02:46.147Z,60.20
2023-03-25T18:04:20.986Z,60.30
2023-03-25T18:05:55.870Z,60.40
2023-03-25T18:07:29.054Z,60.40
2023-03-25T18:09:02.217Z,60.30
2023-03-25T18:10:35.718Z,60.30
2023-03-25T18:12:09.316Z,60.30
2023-03-25T18:13:47.807Z,60.40
2023-03-25T18:15:21.410Z,60.40
2023-03-25T18:16:56.234Z,60.50
2023-03-25T18:18:31.923Z,60.70
2023-03-25T18:20:16.411Z,60.60
2023-03-25T18:21:50.964Z,60.70
2023-03-25T18:23:24.440Z,60.60
2023-03-25T18:24:58.106Z,60.60
2023-03-25T18:26:31.210Z,60.50
2023-03-25T18:28:05.115Z,60.40
2023-03-25T18:29:39.684Z,60.30
2023-03-25T18:31:17.013Z,60.20
2023-03-25T18:32:50.844Z,60.10
2023-03-25T18:34:25.992Z,59.90
2023-03-25T18:35:59.903Z,59.90
2023-03-25T18:37:33.586Z,59.80
2023-03-25T18:39:08.429Z,59.80
2023-03-25T18:40:41.530Z,59.80
2023-03-25T18:42:14.846Z,59.60
2023-03-25T18:43:48.178Z,59.80
2023-03-25T18:45:23.800Z,59.80
2023-03-25T18:46:56.989Z,59.80
2023-03-25T18:48:30.120Z,59.80
2023-03-25T18:50:02.296Z,59.80
2023-03-25T18:51:37.277Z,59.70
2023-03-25T18:53:13.016Z,59.80
2023-03-25T18:54:46.135Z,59.60
2023-03-25T18:56:20.466Z,59.60
2023-03-25T18:57:53.612Z,59.70
2023-03-25T18:59:26.916Z,59.70
2023-03-25T19:01:02.038Z,59.70
2023-03-25T19:02:35.587Z,59.70
2023-03-25T19:04:11.429Z,59.90
2023-03-25T19:05:47.992Z,59.90
2023-03-25T19:07:24.286Z,59.80
2023-03-25T19:09:03.590Z,59.90
2023-03-25T19:10:37.441Z,59.90
2023-03-25T19:12:10.973Z,60.00
2023-03-25T19:13:44.107Z,60.10
2023-03-25T19:15:20.567Z,60.20
2023-03-25T19:17:03.507Z,60.30
2023-03-25T19:18:37.238Z,60.20
2023-03-25T19:20:17.581Z,60.40
2023-03-25T19:21:54.140Z,60.30
2023-03-25T19:23:27.440Z,60.00
2023-03-25T19:25:02.207Z,60.30
2023-03-25T19:26:35.428Z,60.40
2023-03-25T19:28:09.525Z,60.50
2023-03-25T19:29:44.957Z,61.40
2023-03-25T19:31:19.006Z,60.50
2023-03-25T19:32:54.874Z,60.40
2023-03-25T19:34:28.207Z,60.30
2023-03-25T19:36:04.112Z,60.10
2023-03-25T19:37:37.812Z,60.00
2023-03-25T19:39:12.662Z,60.00
2023-03-25T19:40:47.355Z,59.90
2023-03-25T19:42:19.785Z,60.10
2023-03-25T19:43:52.981Z,59.90
2023-03-25T19:45:28.714Z,59.80
2023-03-25T19:47:02.269Z,59.80
2023-03-25T19:48:36.927Z,59.70
2023-03-25T19:50:11.315Z,59.80
2023-03-25T19:51:45.195Z,59.70
2023-03-25T19:53:18.372Z,59.70
2023-03-25T19:54:52.025Z,59.60
2023-03-25T19:56:26.605Z,59.80
2023-03-25T19:57:59.893Z,59.40
2023-03-25T19:59:33.163Z,59.40
2023-03-25T20:01:07.408Z,59.60
2023-03-25T20:02:40.476Z,59.60
2023-03-25T20:04:15.457Z,59.50
2023-03-25T20:05:50.390Z,59.60
2023-03-25T20:07:26.132Z,59.60
2023-03-25T20:08:59.614Z,59.60
2023-03-25T20:10:33.610Z,59.60
2023-03-25T20:12:08.482Z,59.60
2023-03-25T20:13:41.916Z,59.60
2023-03-25T20:15:16.116Z,59.60
2023-03-25T20:16:49.376Z,59.80
2023-03-25T20:18:25.605Z,59.70
2023-03-25T20:19:58.761Z,59.80
2023-03-25T20:21:32.238Z,59.80
2023-03-25T20:23:04.446Z,59.90
2023-03-25T20:24:38.005Z,59.90
2023-03-25T20:26:11.288Z,59.90
2023-03-25T20:27:47.480Z,59.80
2023-03-25T20:29:22.201Z,59.90
2023-03-25T20:30:56.491Z,59.90
2023-03-25T20:32:39.744Z,59.90
2023-03-25T20:34:14.518Z,60.00
2023-03-25T20:35:48.087Z,60.00
2023-03-25T20:37:21.796Z,60.10
2023-03-25T20:38:57.514Z,60.30
2023-03-25T20:40:43.662Z,60.60
2023-03-25T20:42:17.928Z,60.70
2023-03-25T20:43:52.620Z,60.70
2023-03-25T20:45:29.285Z,60.60
2023-03-25T20:47:04.931Z,60.70
2023-03-25T20:48:38.660Z,61.00
2023-03-25T20:50:16.216Z,61.30
2023-03-25T20:51:50.830Z,61.70
2023-03-25T20:53:24.023Z,61.90
2023-03-25T20:54:57.727Z,62.20
2023-03-25T20:56:31.591Z,62.20
2023-03-25T20:58:05.676Z,62.20
2023-03-25T20:59:40.363Z,62.20
2023-03-25T21:01:15.226Z,62.60
2023-03-25T21:02:50.249Z,62.80
2023-03-25T21:04:24.410Z,63.40
2023-03-25T21:06:07.115Z,63.50
2023-03-25T21:07:43.796Z,62.60
2023-03-25T21:09:16.558Z,62.50
2023-03-25T21:10:50.202Z,62.40
2023-03-25T21:12:32.895Z,62.20
2023-03-25T21:14:14.292Z,61.90